This is the latest recevied weather packets stored in our database for station/object KQ5S-13. If no packets are shown the sender has not sent any weather packets the latest 10 day(s).
| Time | Temp. | Humidity | Pressure | Rain* | Wind** | Luminosity | Snow |
|---|---|---|---|---|---|---|---|
| 1778036416 | 20° C | 67% | 1012 hPa | 0 mm | - | 0 W/m² | - |
| 1778035817 | 20° C | 67% | 1012.1 hPa | 0 mm | - | 0 W/m² | - |
| 1778034617 | 20.56° C | 67% | 1011.7 hPa | 0 mm | - | 0 W/m² | - |
| 1778030416 | 20.56° C | 66% | 1011.6 hPa | 0 mm | - | 0 W/m² | - |
| 1778029216 | 21.11° C | 65% | 1011.3 hPa | 0 mm | - | 0 W/m² | - |
| 1778028016 | 21.11° C | 64% | 1011.5 hPa | 0 mm | - | 0 W/m² | - |
| 1778022616 | 22.22° C | 60% | 1012.1 hPa | 0 mm | - | 47 W/m² | - |
| 1778020836 | 22.22° C | 58% | 1012.2 hPa | 0 mm | - | 69 W/m² | - |
| 1778018416 | 23.33° C | 56% | 1012.2 hPa | 0 mm | - | 154 W/m² | - |
| 1778016616 | 23.33° C | 56% | 1012 hPa | 0 mm | - | 279 W/m² | - |
| 1778012456 | 23.33° C | 51% | 1012.2 hPa | 0 mm | - | 115 W/m² | - |
| 1778010615 | 23.89° C | 49% | 1013.1 hPa | 0 mm | - | 306 W/m² | - |
| 1778008815 | 23.89° C | 50% | 1013.4 hPa | 0 mm | - | 220 W/m² | - |
| 1778007615 | 23.33° C | 49% | 1013.8 hPa | 0 mm | - | 110 W/m² | - |
| 1778006417 | 23.89° C | 50% | 1013.8 hPa | 0 mm | - | 80 W/m² | - |
| 1778004617 | 23.33° C | 50% | 1014.1 hPa | 0 mm | - | 144 W/m² | - |
| 1777987817 | 18.33° C | 68% | 1014.9 hPa | 0 mm | - | 577 W/m² | - |
| 1777987217 | 17.78° C | 71% | 1014.9 hPa | 0 mm | - | 514 W/m² | - |
| 1777985417 | 16.11° C | 76% | 1014.9 hPa | 0 mm | - | 344 W/m² | - |
| 1777981217 | 11.11° C | 89% | 1013.8 hPa | 0 mm | - | 56 W/m² | - |
| 1777980617 | 11.11° C | 89% | 1013.6 hPa | 0 mm | - | 31 W/m² | - |
| 1777976417 | 11.67° C | 85% | 1012.8 hPa | 0 mm | - | 0 W/m² | - |
| 1777973417 | 11.11° C | 85% | 1013.1 hPa | 0 mm | - | 0 W/m² | - |
| 1777960816 | 12.22° C | 82% | 1013.7 hPa | 0 mm | - | 0 W/m² | - |
| 1777956037 | 12.78° C | 80% | 1013.9 hPa | 0 mm | - | 0 W/m² | - |
* Rain latest hour (hover to see other rain measurements)
** Current wind speed in m/s (hover to see current wind gust speed)